createdAt,value
2022-09-24T00:01:33.106Z,14.10
2022-09-24T00:04:00.686Z,14.55
2022-09-24T00:06:27.980Z,15.25
2022-09-24T00:08:58.117Z,15.35
2022-09-24T00:11:25.759Z,16.30
2022-09-24T00:13:53.066Z,16.80
2022-09-24T00:16:22.128Z,15.75
2022-09-24T00:18:48.709Z,17.77
2022-09-24T00:21:16.120Z,17.90
2022-09-24T00:23:42.645Z,17.92
2022-09-24T00:26:29.208Z,16.27
2022-09-24T00:28:55.724Z,15.93
2022-09-24T00:31:23.677Z,17.10
2022-09-24T00:33:52.296Z,15.73
2022-09-24T00:36:19.312Z,16.35
2022-09-24T00:38:48.369Z,16.95
2022-09-24T00:41:14.857Z,15.85
2022-09-24T00:43:41.597Z,15.82
2022-09-24T00:46:13.273Z,16.25
2022-09-24T00:48:41.638Z,16.35
2022-09-24T00:51:09.189Z,14.70
2022-09-24T00:53:36.313Z,15.25
2022-09-24T00:56:03.265Z,15.60
2022-09-24T00:58:31.307Z,14.77
2022-09-24T01:00:59.247Z,15.45
2022-09-24T01:03:26.955Z,14.65
2022-09-24T01:05:56.291Z,14.90
2022-09-24T01:08:22.774Z,14.95
2022-09-24T01:11:04.112Z,14.30
2022-09-24T01:13:45.433Z,15.43
2022-09-24T01:16:15.300Z,13.80
2022-09-24T01:18:44.186Z,13.23
2022-09-24T01:21:21.301Z,13.98
2022-09-24T01:23:57.986Z,15.02
2022-09-24T01:26:39.830Z,14.35
2022-09-24T01:29:25.191Z,13.32
2022-09-24T01:31:57.591Z,14.13
2022-09-24T01:34:27.150Z,14.55
2022-09-24T01:36:55.552Z,15.32
2022-09-24T01:39:22.175Z,14.63
2022-09-24T01:41:49.068Z,14.65
2022-09-24T01:44:16.110Z,16.17
2022-09-24T01:46:42.841Z,14.90
2022-09-24T01:49:10.854Z,15.18
2022-09-24T01:51:38.631Z,14.95
2022-09-24T01:54:07.180Z,14.90
2022-09-24T01:56:36.187Z,14.45
2022-09-24T01:59:04.605Z,15.02
2022-09-24T02:01:32.520Z,16.42
2022-09-24T02:04:04.895Z,15.85
2022-09-24T02:06:33.709Z,16.20
2022-09-24T02:09:00.184Z,16.98
2022-09-24T02:11:28.093Z,17.42
2022-09-24T02:13:56.414Z,16.20
2022-09-24T02:16:26.764Z,16.23
2022-09-24T02:18:55.096Z,16.35
2022-09-24T02:21:22.215Z,16.60
2022-09-24T02:23:52.020Z,16.48
2022-09-24T02:26:18.488Z,16.50
2022-09-24T02:28:45.581Z,16.83
2022-09-24T02:31:14.377Z,17.35
2022-09-24T02:34:05.715Z,16.20
2022-09-24T02:36:33.158Z,17.00
2022-09-24T02:39:01.884Z,16.85
2022-09-24T02:41:29.636Z,17.50
2022-09-24T02:43:56.087Z,18.48
2022-09-24T02:46:22.640Z,17.70
2022-09-24T02:48:49.118Z,18.42
2022-09-24T02:51:15.769Z,18.05
2022-09-24T02:53:42.240Z,19.17
2022-09-24T02:56:11.214Z,20.63
2022-09-24T02:58:37.722Z,20.60
2022-09-24T03:01:05.189Z,20.60
2022-09-24T03:03:32.033Z,21.45
2022-09-24T03:05:58.472Z,20.73
2022-09-24T03:08:25.252Z,21.23
2022-09-24T03:10:51.726Z,20.67
2022-09-24T03:13:19.745Z,21.25
2022-09-24T03:15:46.459Z,20.80
2022-09-24T03:18:13.533Z,20.92
2022-09-24T03:20:40.157Z,21.42
2022-09-24T03:23:06.644Z,20.52
2022-09-24T03:25:33.089Z,20.17
2022-09-24T03:27:59.571Z,20.90
2022-09-24T03:30:46.014Z,21.15
2022-09-24T03:33:12.669Z,18.70
2022-09-24T03:35:39.141Z,19.10
2022-09-24T03:38:05.617Z,19.38
2022-09-24T03:40:32.386Z,19.27
2022-09-24T03:42:58.909Z,19.48
2022-09-24T03:45:26.854Z,18.35
2022-09-24T03:47:53.342Z,15.77
2022-09-24T03:50:19.810Z,14.57
2022-09-24T03:52:46.264Z,12.05
2022-09-24T03:55:12.710Z,11.98
2022-09-24T03:57:39.204Z,11.63
2022-09-24T04:00:06.103Z,10.35
2022-09-24T04:02:33.978Z,10.20
2022-09-24T04:05:00.442Z,10.30
2022-09-24T04:07:26.925Z,10.38
2022-09-24T04:09:53.422Z,10.85
2022-09-24T04:12:20.622Z,11.52
2022-09-24T04:14:47.121Z,12.40
2022-09-24T04:17:14.430Z,12.45
2022-09-24T04:19:42.261Z,11.82
2022-09-24T04:22:08.845Z,12.60
2022-09-24T04:24:35.393Z,11.93
2022-09-24T04:27:01.873Z,12.15
2022-09-24T04:29:28.388Z,12.93
2022-09-24T04:31:55.007Z,14.30
2022-09-24T04:34:21.525Z,18.05
2022-09-24T04:36:49.353Z,16.98
2022-09-24T04:39:15.810Z,15.55
2022-09-24T04:41:42.362Z,16.30
2022-09-24T04:44:08.960Z,15.73
2022-09-24T04:46:35.482Z,16.27
2022-09-24T04:49:02.095Z,16.30
2022-09-24T04:51:28.652Z,15.95
2022-09-24T04:53:56.513Z,15.55
2022-09-24T04:56:23.016Z,15.25
2022-09-24T04:58:50.329Z,16.38
2022-09-24T05:01:16.848Z,16.50
2022-09-24T05:03:44.925Z,15.60
2022-09-24T05:06:11.573Z,16.48
2022-09-24T05:08:38.033Z,16.42
2022-09-24T05:11:06.130Z,16.38
2022-09-24T05:13:32.601Z,16.30
2022-09-24T05:16:01.049Z,15.45
2022-09-24T05:18:28.026Z,15.50
2022-09-24T05:20:54.590Z,15.25
2022-09-24T05:23:21.072Z,14.98
2022-09-24T05:26:05.950Z,16.10
2022-09-24T05:28:33.802Z,15.33
2022-09-24T05:31:00.352Z,15.07
2022-09-24T05:33:27.001Z,14.35
2022-09-24T05:35:53.981Z,15.23
2022-09-24T05:38:20.554Z,14.48
2022-09-24T05:40:50.053Z,14.70
2022-09-24T05:43:17.209Z,14.57
2022-09-24T05:45:46.041Z,13.57
2022-09-24T05:48:12.522Z,13.55
2022-09-24T05:50:39.027Z,13.82
2022-09-24T05:53:05.793Z,14.88
2022-09-24T05:55:32.784Z,12.88
2022-09-24T05:58:02.498Z,13.30
2022-09-24T06:00:29.017Z,13.60
2022-09-24T06:03:02.814Z,13.88
2022-09-24T06:05:29.393Z,13.10
2022-09-24T06:07:56.213Z,13.55
2022-09-24T06:10:22.694Z,13.20
2022-09-24T06:12:50.524Z,12.20
2022-09-24T06:15:17.060Z,10.90
2022-09-24T06:17:43.509Z,13.55
2022-09-24T06:20:11.345Z,12.82
2022-09-24T06:22:37.825Z,12.98
2022-09-24T06:25:04.758Z,13.48
2022-09-24T06:27:31.234Z,13.73
2022-09-24T06:29:57.799Z,13.35
2022-09-24T06:32:24.521Z,14.10
2022-09-24T06:34:54.336Z,12.38
2022-09-24T06:37:24.734Z,13.02
2022-09-24T06:39:51.224Z,12.80
2022-09-24T06:42:17.683Z,13.35
2022-09-24T06:44:44.170Z,12.43
2022-09-24T06:47:12.604Z,12.52
2022-09-24T06:49:39.068Z,12.52
2022-09-24T06:52:05.941Z,12.27
2022-09-24T06:54:33.797Z,12.00
2022-09-24T06:57:00.278Z,13.05
2022-09-24T06:59:26.788Z,12.43
2022-09-24T07:01:53.306Z,12.52
2022-09-24T07:04:20.061Z,11.65
2022-09-24T07:07:05.181Z,11.85
2022-09-24T07:09:31.823Z,12.43
2022-09-24T07:12:03.064Z,12.88
2022-09-24T07:14:29.601Z,14.48
2022-09-24T07:16:56.077Z,12.82
2022-09-24T07:19:22.634Z,13.10
2022-09-24T07:21:49.108Z,13.65
2022-09-24T07:24:15.578Z,14.07
2022-09-24T07:26:42.262Z,15.10
2022-09-24T07:29:10.133Z,15.60
2022-09-24T07:31:36.829Z,16.13
2022-09-24T07:34:03.387Z,15.90
2022-09-24T07:36:32.483Z,16.80
2022-09-24T07:38:59.242Z,16.83
2022-09-24T07:41:26.071Z,17.13
2022-09-24T07:43:53.204Z,15.65
2022-09-24T07:46:21.358Z,15.07
2022-09-24T07:48:49.152Z,16.83
2022-09-24T07:51:16.431Z,15.70
2022-09-24T07:53:43.013Z,16.80
2022-09-24T07:56:09.497Z,17.35
2022-09-24T07:58:35.990Z,16.33
2022-09-24T08:01:03.152Z,17.35
2022-09-24T08:03:31.493Z,17.33
2022-09-24T08:05:59.941Z,17.05
2022-09-24T08:08:26.423Z,17.23
2022-09-24T08:10:53.284Z,17.25
2022-09-24T08:13:23.922Z,18.35
2022-09-24T08:15:56.021Z,16.80
2022-09-24T08:18:22.518Z,17.08
2022-09-24T08:20:50.345Z,17.45
2022-09-24T08:23:17.024Z,17.13
2022-09-24T08:25:43.487Z,16.65
2022-09-24T08:28:12.797Z,16.20
2022-09-24T08:30:42.101Z,17.17
2022-09-24T08:33:09.001Z,16.90
2022-09-24T08:35:36.173Z,17.27
2022-09-24T08:38:04.033Z,16.27
2022-09-24T08:40:34.615Z,17.75
2022-09-24T08:43:07.599Z,17.73
2022-09-24T08:45:59.025Z,17.83
2022-09-24T08:48:26.848Z,18.17
2022-09-24T08:50:58.214Z,18.00
2022-09-24T08:53:27.521Z,19.33
2022-09-24T08:55:55.723Z,19.52
2022-09-24T08:58:43.465Z,18.10
2022-09-24T09:01:18.063Z,20.40
2022-09-24T09:03:47.612Z,19.10
2022-09-24T09:06:21.560Z,19.38
2022-09-24T09:09:06.426Z,20.33
2022-09-24T09:11:34.800Z,19.88
2022-09-24T09:14:04.637Z,20.48
2022-09-24T09:16:34.155Z,19.85
2022-09-24T09:19:04.183Z,19.77
2022-09-24T09:21:34.700Z,19.85
2022-09-24T09:24:03.120Z,19.98
2022-09-24T09:26:29.607Z,20.42
2022-09-24T09:28:58.604Z,19.02
2022-09-24T09:31:30.725Z,19.88
2022-09-24T09:34:02.492Z,18.73
2022-09-24T09:36:35.743Z,19.48
2022-09-24T09:39:09.047Z,18.67
2022-09-24T09:41:40.336Z,20.50
2022-09-24T09:44:11.859Z,18.88
2022-09-24T09:46:40.700Z,18.40
2022-09-24T09:49:07.601Z,18.65
2022-09-24T09:51:38.461Z,19.00
2022-09-24T09:54:06.489Z,20.17
2022-09-24T09:56:34.879Z,19.80
2022-09-24T09:59:02.401Z,19.55
2022-09-24T10:01:31.835Z,18.58
2022-09-24T10:03:58.407Z,18.67
2022-09-24T10:06:25.746Z,17.95
2022-09-24T10:08:52.311Z,18.45
2022-09-24T10:11:22.145Z,17.58
2022-09-24T10:14:01.134Z,16.38
2022-09-24T10:16:27.714Z,16.23
2022-09-24T10:18:54.287Z,16.75
2022-09-24T10:21:28.409Z,14.40
2022-09-24T10:23:58.268Z,15.82
2022-09-24T10:26:34.792Z,13.48
2022-09-24T10:29:20.274Z,14.35
2022-09-24T10:31:48.899Z,15.65
2022-09-24T10:34:20.332Z,15.63
2022-09-24T10:36:50.095Z,14.55
2022-09-24T10:39:16.593Z,14.80
2022-09-24T10:41:48.054Z,13.90
2022-09-24T10:44:16.739Z,13.10
2022-09-24T10:46:51.489Z,13.30
2022-09-24T10:49:26.418Z,13.02
2022-09-24T10:51:57.275Z,12.85
2022-09-24T10:54:34.373Z,14.60
2022-09-24T10:57:05.609Z,13.23
2022-09-24T10:59:41.283Z,13.52
2022-09-24T11:02:19.996Z,14.27
2022-09-24T11:04:50.559Z,14.65
2022-09-24T11:07:23.363Z,14.27
2022-09-24T11:09:52.296Z,14.50
2022-09-24T11:12:25.913Z,13.68
2022-09-24T11:15:04.153Z,13.30
2022-09-24T11:17:34.694Z,13.65
2022-09-24T11:20:14.440Z,13.52
2022-09-24T11:22:48.029Z,13.02
2022-09-24T11:25:20.153Z,12.43
2022-09-24T11:27:51.563Z,12.25
2022-09-24T11:30:19.235Z,12.25
2022-09-24T11:32:54.527Z,12.98
2022-09-24T11:35:45.306Z,14.90
2022-09-24T11:38:15.156Z,13.00
2022-09-24T11:40:53.001Z,11.98
2022-09-24T11:43:28.330Z,12.05
2022-09-24T11:46:03.736Z,11.98
2022-09-24T11:48:45.076Z,11.50
2022-09-24T11:51:19.110Z,11.02
2022-09-24T11:53:48.449Z,9.93
2022-09-24T11:56:17.853Z,10.15
2022-09-24T11:58:47.084Z,10.70
2022-09-24T12:01:16.477Z,10.52
2022-09-24T12:03:45.704Z,9.95
2022-09-24T12:06:14.892Z,11.20
2022-09-24T12:08:44.025Z,10.02
2022-09-24T12:11:14.045Z,8.55
2022-09-24T12:13:42.667Z,9.88
2022-09-24T12:16:13.693Z,8.45
2022-09-24T12:18:45.077Z,8.43
2022-09-24T12:21:13.041Z,8.48
2022-09-24T12:23:40.974Z,9.57
2022-09-24T12:26:08.049Z,8.77
2022-09-24T12:28:56.153Z,7.93
2022-09-24T12:31:49.867Z,8.15
2022-09-24T12:34:20.173Z,9.18
2022-09-24T12:36:57.165Z,6.43
2022-09-24T12:39:25.835Z,8.05
2022-09-24T12:41:57.742Z,7.70
2022-09-24T12:44:28.280Z,6.55
2022-09-24T12:46:57.909Z,6.20
2022-09-24T12:49:29.564Z,6.85
2022-09-24T12:51:57.129Z,5.72
2022-09-24T12:54:27.835Z,5.70
2022-09-24T12:57:04.979Z,6.68
2022-09-24T12:59:31.545Z,6.68
2022-09-24T13:02:13.844Z,6.97
2022-09-24T13:04:43.911Z,6.82
2022-09-24T13:07:25.260Z,6.93
2022-09-24T13:09:51.745Z,6.57
2022-09-24T13:12:22.529Z,7.03
2022-09-24T13:14:50.483Z,6.80
2022-09-24T13:17:18.626Z,6.60
2022-09-24T13:19:47.071Z,6.60
2022-09-24T13:22:21.723Z,6.50
2022-09-24T13:24:49.405Z,5.65
2022-09-24T13:27:23.855Z,5.32
2022-09-24T13:30:00.590Z,5.77
2022-09-24T13:32:28.529Z,3.55
2022-09-24T13:34:55.223Z,2.40
2022-09-24T13:37:27.741Z,1.70
2022-09-24T13:39:57.309Z,1.15
2022-09-24T13:42:29.148Z,1.23
2022-09-24T13:44:56.643Z,1.38
2022-09-24T13:47:28.209Z,1.10
2022-09-24T13:50:02.325Z,1.05
2022-09-24T13:52:29.776Z,1.25
2022-09-24T13:54:56.856Z,1.42
2022-09-24T13:57:24.325Z,1.63
2022-09-24T14:00:01.197Z,1.50
2022-09-24T14:02:31.899Z,2.05
2022-09-24T14:05:00.648Z,1.98
2022-09-24T14:07:27.579Z,2.15
2022-09-24T14:10:02.287Z,2.15
2022-09-24T14:12:28.785Z,2.20
2022-09-24T14:14:58.122Z,1.95
2022-09-24T14:17:24.994Z,2.53
2022-09-24T14:19:54.363Z,1.60
2022-09-24T14:22:23.237Z,2.00
2022-09-24T14:24:54.075Z,1.83
2022-09-24T14:27:22.152Z,2.22
2022-09-24T14:29:50.471Z,1.85
2022-09-24T14:32:21.079Z,1.92
2022-09-24T14:34:51.194Z,2.30
2022-09-24T14:37:19.415Z,2.30
2022-09-24T14:39:48.595Z,2.80
2022-09-24T14:42:21.192Z,1.90
2022-09-24T14:44:48.843Z,1.77
2022-09-24T14:47:25.624Z,1.80
2022-09-24T14:49:52.378Z,1.95
2022-09-24T14:52:26.108Z,2.28
2022-09-24T14:55:02.795Z,2.10
2022-09-24T14:57:35.691Z,2.67
2022-09-24T15:00:02.249Z,1.77
2022-09-24T15:02:30.814Z,1.98
2022-09-24T15:05:03.311Z,2.00
2022-09-24T15:07:32.764Z,2.03
2022-09-24T15:10:00.344Z,2.47
2022-09-24T15:12:31.119Z,2.55
2022-09-24T15:14:59.987Z,2.50
2022-09-24T15:17:29.778Z,2.38
2022-09-24T15:19:57.981Z,2.65
2022-09-24T15:22:26.742Z,2.42
2022-09-24T15:24:57.440Z,2.58
2022-09-24T15:27:29.688Z,3.13
2022-09-24T15:29:59.377Z,2.83
2022-09-24T15:32:26.554Z,2.67
2022-09-24T15:34:54.116Z,2.83
2022-09-24T15:37:21.911Z,2.58
2022-09-24T15:39:49.264Z,2.50
2022-09-24T15:42:16.493Z,1.70
2022-09-24T15:44:45.273Z,2.28
2022-09-24T15:47:12.057Z,2.10
2022-09-24T15:49:38.603Z,1.90
2022-09-24T15:52:06.682Z,2.03
2022-09-24T15:54:33.135Z,2.55
2022-09-24T15:57:00.788Z,2.72
2022-09-24T15:59:27.315Z,2.35
2022-09-24T16:01:57.488Z,2.65
2022-09-24T16:04:24.045Z,2.50
2022-09-24T16:06:50.598Z,3.55
2022-09-24T16:09:17.136Z,2.90
2022-09-24T16:11:43.893Z,3.08
2022-09-24T16:14:10.410Z,3.42
2022-09-24T16:16:37.971Z,3.88
2022-09-24T16:19:07.130Z,3.28
2022-09-24T16:21:33.596Z,3.25
2022-09-24T16:24:00.778Z,3.05
2022-09-24T16:26:27.329Z,3.30
2022-09-24T16:28:53.836Z,4.05
2022-09-24T16:31:20.530Z,3.30
2022-09-24T16:33:47.105Z,2.85
2022-09-24T16:36:15.488Z,2.65
2022-09-24T16:38:41.972Z,1.80
2022-09-24T16:41:08.559Z,2.17
2022-09-24T16:43:35.004Z,2.13
2022-09-24T16:46:03.659Z,2.30
2022-09-24T16:48:30.689Z,2.33
2022-09-24T16:51:01.364Z,3.00
2022-09-24T16:53:29.206Z,2.40
2022-09-24T16:56:01.879Z,2.60
2022-09-24T16:58:28.393Z,2.30
2022-09-24T17:00:54.890Z,2.70
2022-09-24T17:03:21.464Z,2.25
2022-09-24T17:05:47.968Z,2.88
2022-09-24T17:08:14.411Z,2.10
2022-09-24T17:10:51.248Z,2.22
2022-09-24T17:13:18.245Z,2.63
2022-09-24T17:15:44.815Z,2.83
2022-09-24T17:18:11.320Z,2.50
2022-09-24T17:20:37.833Z,2.67
2022-09-24T17:23:04.346Z,2.60
2022-09-24T17:25:33.634Z,2.72
2022-09-24T17:28:02.198Z,2.58
2022-09-24T17:30:28.650Z,2.88
2022-09-24T17:32:55.132Z,3.20
2022-09-24T17:35:22.131Z,2.85
2022-09-24T17:37:48.851Z,3.38
2022-09-24T17:40:19.919Z,3.40
2022-09-24T17:42:49.533Z,3.58
2022-09-24T17:45:17.768Z,4.07
2022-09-24T17:47:56.361Z,3.67
2022-09-24T17:50:23.162Z,3.85
2022-09-24T17:52:49.864Z,3.35
2022-09-24T17:55:16.380Z,4.00
2022-09-24T17:57:42.828Z,3.72
2022-09-24T18:00:10.131Z,3.28
2022-09-24T18:02:38.023Z,3.13
2022-09-24T18:05:04.804Z,4.05
2022-09-24T18:07:31.283Z,3.63
2022-09-24T18:09:57.865Z,3.60
2022-09-24T18:12:24.348Z,4.10
2022-09-24T18:14:50.790Z,3.83
2022-09-24T18:17:17.255Z,3.67
2022-09-24T18:19:45.087Z,4.57
2022-09-24T18:22:13.101Z,4.05
2022-09-24T18:24:40.025Z,4.43
2022-09-24T18:27:06.559Z,4.93
2022-09-24T18:29:33.109Z,4.10
2022-09-24T18:31:59.629Z,4.18
2022-09-24T18:34:26.125Z,3.63
2022-09-24T18:36:53.943Z,4.30
2022-09-24T18:39:25.401Z,4.10
2022-09-24T18:41:52.396Z,3.20
2022-09-24T18:44:19.707Z,3.53
2022-09-24T18:46:46.734Z,3.30
2022-09-24T18:49:13.372Z,3.05
2022-09-24T18:51:39.863Z,3.80
2022-09-24T18:54:08.672Z,3.85
2022-09-24T18:56:36.255Z,4.20
2022-09-24T18:59:08.561Z,4.22
2022-09-24T19:01:37.073Z,4.10
2022-09-24T19:04:03.867Z,3.53
2022-09-24T19:06:30.727Z,7.03
2022-09-24T19:08:57.279Z,10.02
2022-09-24T19:11:25.151Z,10.38
2022-09-24T19:13:53.446Z,12.45
2022-09-24T19:16:20.935Z,5.57
2022-09-24T19:18:47.509Z,3.47
2022-09-24T19:21:15.516Z,3.05
2022-09-24T19:23:42.835Z,2.13
2022-09-24T19:26:10.406Z,3.38
2022-09-24T19:28:40.329Z,1.80
2022-09-24T19:31:12.082Z,1.67
2022-09-24T19:33:38.589Z,1.40
2022-09-24T19:36:05.242Z,1.60
2022-09-24T19:38:32.392Z,1.83
2022-09-24T19:40:59.763Z,1.35
2022-09-24T19:43:26.897Z,1.33
2022-09-24T19:45:55.723Z,1.40
2022-09-24T19:48:22.385Z,2.40
2022-09-24T19:50:48.921Z,1.60
2022-09-24T19:53:15.747Z,18.85
2022-09-24T19:55:42.575Z,10.18
2022-09-24T19:58:09.126Z,7.95
2022-09-24T20:00:37.014Z,2.92
2022-09-24T20:03:04.974Z,2.88
2022-09-24T20:05:31.558Z,2.15
2022-09-24T20:07:58.085Z,2.00
2022-09-24T20:10:24.537Z,2.55
2022-09-24T20:12:51.974Z,3.60
2022-09-24T20:15:18.437Z,2.13
2022-09-24T20:17:44.920Z,2.88
2022-09-24T20:20:12.955Z,2.55
2022-09-24T20:22:39.496Z,3.10
2022-09-24T20:25:06.645Z,2.58
2022-09-24T20:27:51.430Z,2.75
2022-09-24T20:30:21.569Z,3.08
2022-09-24T20:32:48.225Z,2.97
2022-09-24T20:35:16.838Z,2.85
2022-09-24T20:37:43.316Z,2.00
2022-09-24T20:40:10.122Z,1.85
2022-09-24T20:42:37.173Z,2.47
2022-09-24T20:45:06.407Z,2.25
2022-09-24T20:47:33.078Z,3.38
2022-09-24T20:49:59.562Z,2.63
2022-09-24T20:52:27.457Z,2.58
2022-09-24T20:54:54.037Z,2.50
2022-09-24T20:57:20.588Z,1.90
2022-09-24T20:59:47.977Z,2.20
2022-09-24T21:02:15.491Z,2.28
2022-09-24T21:04:42.135Z,2.13
2022-09-24T21:07:08.696Z,2.38
2022-09-24T21:09:36.604Z,3.28
2022-09-24T21:12:03.633Z,2.60
2022-09-24T21:14:30.132Z,3.70
2022-09-24T21:16:56.612Z,4.18
2022-09-24T21:19:23.093Z,2.92
2022-09-24T21:21:51.337Z,3.50
2022-09-24T21:24:17.937Z,2.20
2022-09-24T21:26:45.966Z,3.92
2022-09-24T21:29:15.387Z,2.40
2022-09-24T21:31:44.033Z,2.65
2022-09-24T21:34:10.921Z,2.63
2022-09-24T21:36:43.762Z,2.08
2022-09-24T21:39:13.116Z,1.80
2022-09-24T21:41:39.636Z,1.73
2022-09-24T21:44:09.118Z,1.40
2022-09-24T21:46:35.798Z,1.92
2022-09-24T21:49:02.656Z,1.80
2022-09-24T21:51:30.221Z,1.88
2022-09-24T21:53:58.640Z,1.80
2022-09-24T21:56:25.413Z,1.65
2022-09-24T21:58:52.894Z,2.00
2022-09-24T22:01:22.954Z,1.63
2022-09-24T22:03:51.755Z,1.73
2022-09-24T22:06:18.235Z,1.60
2022-09-24T22:08:47.217Z,1.80
2022-09-24T22:11:13.894Z,1.60
2022-09-24T22:13:40.736Z,1.75
2022-09-24T22:16:08.495Z,2.53
2022-09-24T22:18:36.691Z,2.35
2022-09-24T22:21:05.379Z,2.00
2022-09-24T22:23:31.851Z,1.85
2022-09-24T22:25:58.698Z,2.10
2022-09-24T22:28:25.838Z,2.05
2022-09-24T22:30:52.880Z,2.10
2022-09-24T22:33:38.130Z,2.50
2022-09-24T22:36:06.531Z,2.47
2022-09-24T22:38:33.092Z,2.05
2022-09-24T22:40:59.589Z,1.70
2022-09-24T22:43:26.138Z,1.83
2022-09-24T22:45:56.539Z,2.30
2022-09-24T22:48:22.981Z,1.80
2022-09-24T22:50:49.453Z,2.25
2022-09-24T22:53:17.312Z,1.67
2022-09-24T22:55:43.964Z,2.00
2022-09-24T22:58:10.423Z,2.10
2022-09-24T23:00:37.288Z,2.42
2022-09-24T23:03:04.052Z,2.10
2022-09-24T23:05:31.300Z,2.15
2022-09-24T23:07:58.098Z,2.00
2022-09-24T23:10:28.094Z,2.70
2022-09-24T23:12:54.575Z,2.47
2022-09-24T23:15:21.028Z,2.40
2022-09-24T23:17:47.793Z,2.60
2022-09-24T23:20:14.614Z,2.50
2022-09-24T23:22:41.122Z,2.60
2022-09-24T23:25:08.211Z,2.95
2022-09-24T23:27:36.700Z,2.92
2022-09-24T23:30:03.393Z,2.40
2022-09-24T23:32:30.341Z,2.60
2022-09-24T23:34:56.815Z,3.25
2022-09-24T23:37:23.323Z,2.80
2022-09-24T23:39:49.763Z,2.60
2022-09-24T23:42:16.261Z,2.58
2022-09-24T23:44:45.395Z,2.58
2022-09-24T23:47:11.903Z,2.63
2022-09-24T23:49:38.344Z,2.97
2022-09-24T23:52:05.306Z,2.92
2022-09-24T23:54:31.767Z,2.58
2022-09-24T23:56:58.429Z,3.47
2022-09-24T23:59:24.922Z,2.50
